Shrewsbury, Vermont
Current Conditions -  °F | °C
As of 5:15 PM on Tuesday 25 Nov 2014 (Local Time) from KRUT Reporting Station
Clear Clear  
Wind Chill: 41°   Ceiling: Unl
Heat Index: 45°   Visibility: 10mi
Dew Point: 23°   Wind: 6mph
Humidity: 43%   Direction: 240°WSW
Pressure: 29.95"   Gusts: NA
Location:  43.5432°N, 72.8545°W
Report Text: KRUT 252215Z 24005KT 10SM CLR 07/M05 A2995 RMK AO1
Loading
Personal Weather Stations






























Interactive Weather Map New forecast layout! Learn more

10-Day Weather Forecast

Advertisements
Track Severe Weather on mobile